createdAt,value
2018-09-20T00:01:54.527Z,17.30
2018-09-20T00:04:23.046Z,17.30
2018-09-20T00:06:51.590Z,17.30
2018-09-20T00:09:20.126Z,17.30
2018-09-20T00:11:48.650Z,17.20
2018-09-20T00:14:17.244Z,17.20
2018-09-20T00:16:45.835Z,17.20
2018-09-20T00:19:14.353Z,17.20
2018-09-20T00:21:42.925Z,17.10
2018-09-20T00:24:12.378Z,17.10
2018-09-20T00:26:41.029Z,17.10
2018-09-20T00:29:09.573Z,17.10
2018-09-20T00:31:38.083Z,17.10
2018-09-20T00:34:06.646Z,17.10
2018-09-20T00:36:35.185Z,17.10
2018-09-20T00:39:04.240Z,17.10
2018-09-20T00:41:32.797Z,17.10
2018-09-20T00:44:03.254Z,17.00
2018-09-20T00:46:31.807Z,17.00
2018-09-20T00:49:00.422Z,17.00
2018-09-20T00:51:29.008Z,17.00
2018-09-20T00:53:57.592Z,16.90
2018-09-20T00:56:26.157Z,16.90
2018-09-20T00:58:54.793Z,16.90
2018-09-20T01:01:23.339Z,16.90
2018-09-20T01:03:52.095Z,16.80
2018-09-20T01:06:20.991Z,16.80
2018-09-20T01:08:49.695Z,16.80
2018-09-20T01:11:18.257Z,16.70
2018-09-20T01:13:46.845Z,16.70
2018-09-20T01:16:15.408Z,16.70
2018-09-20T01:18:43.927Z,16.70
2018-09-20T01:21:12.529Z,16.60
2018-09-20T01:23:41.116Z,16.60
2018-09-20T01:26:09.890Z,16.60
2018-09-20T01:28:38.416Z,16.50
2018-09-20T01:31:07.036Z,16.50
2018-09-20T01:33:35.588Z,16.50
2018-09-20T01:36:04.190Z,16.60
2018-09-20T01:38:32.729Z,16.50
2018-09-20T01:41:07.724Z,16.50
2018-09-20T01:43:36.228Z,16.50
2018-09-20T01:46:04.804Z,16.50
2018-09-20T01:48:33.348Z,16.50
2018-09-20T01:51:03.529Z,16.50
2018-09-20T01:53:32.060Z,16.50
2018-09-20T01:56:00.625Z,16.50
2018-09-20T01:58:29.164Z,16.50
2018-09-20T02:00:57.701Z,16.50
2018-09-20T02:03:26.235Z,16.40
2018-09-20T02:05:54.793Z,16.40
2018-09-20T02:08:23.301Z,16.40
2018-09-20T02:10:51.826Z,16.30
2018-09-20T02:13:20.417Z,16.30
2018-09-20T02:15:48.936Z,16.30
2018-09-20T02:18:17.484Z,16.30
2018-09-20T02:20:46.016Z,16.30
2018-09-20T02:23:14.691Z,16.20
2018-09-20T02:25:43.224Z,16.20
2018-09-20T02:28:11.786Z,16.10
2018-09-20T02:30:40.352Z,16.10
2018-09-20T02:33:08.920Z,16.10
2018-09-20T02:35:37.464Z,16.10
2018-09-20T02:38:06.087Z,16.10
2018-09-20T02:40:34.673Z,16.00
2018-09-20T02:43:03.225Z,16.00
2018-09-20T02:45:31.755Z,16.00
2018-09-20T02:48:00.377Z,16.00
2018-09-20T02:50:28.959Z,15.90
2018-09-20T02:52:57.530Z,15.90
2018-09-20T02:55:26.039Z,15.90
2018-09-20T02:57:54.578Z,15.80
2018-09-20T03:00:23.115Z,15.80
2018-09-20T03:02:51.718Z,15.80
2018-09-20T03:05:20.234Z,15.70
2018-09-20T03:07:48.784Z,15.70
2018-09-20T03:10:17.400Z,15.70
2018-09-20T03:12:45.931Z,15.70
2018-09-20T03:15:14.515Z,15.60
2018-09-20T03:17:43.044Z,15.60
2018-09-20T03:20:11.669Z,15.60
2018-09-20T03:22:40.275Z,15.60
2018-09-20T03:25:08.844Z,15.60
2018-09-20T03:27:37.364Z,15.60
2018-09-20T03:30:05.977Z,15.60
2018-09-20T03:32:34.522Z,15.50
2018-09-20T03:35:03.251Z,15.50
2018-09-20T03:37:31.782Z,15.50
2018-09-20T03:40:00.632Z,15.50
2018-09-20T03:42:29.174Z,15.50
2018-09-20T03:44:57.747Z,15.50
2018-09-20T03:47:26.297Z,15.40
2018-09-20T03:49:55.311Z,15.40
2018-09-20T03:52:23.837Z,15.40
2018-09-20T03:54:52.395Z,15.40
2018-09-20T03:57:20.984Z,15.40
2018-09-20T03:59:49.556Z,15.40
2018-09-20T04:02:18.058Z,15.40
2018-09-20T04:04:46.595Z,15.40
2018-09-20T04:07:15.609Z,15.40
2018-09-20T04:09:44.157Z,15.30
2018-09-20T04:12:12.706Z,15.30
2018-09-20T04:14:41.239Z,15.40
2018-09-20T04:17:10.447Z,15.30
2018-09-20T04:19:38.983Z,15.30
2018-09-20T04:22:10.087Z,15.30
2018-09-20T04:24:38.671Z,15.30
2018-09-20T04:27:07.228Z,15.30
2018-09-20T04:29:35.772Z,15.20
2018-09-20T04:32:04.363Z,15.20
2018-09-20T04:34:32.919Z,15.20
2018-09-20T04:37:03.218Z,15.20
2018-09-20T04:39:31.779Z,15.10
2018-09-20T04:42:00.352Z,15.10
2018-09-20T04:44:28.923Z,15.10
2018-09-20T04:46:57.504Z,15.10
2018-09-20T04:49:26.055Z,15.00
2018-09-20T04:51:54.617Z,15.00
2018-09-20T04:54:23.157Z,15.00
2018-09-20T04:56:51.892Z,14.90
2018-09-20T04:59:20.443Z,15.00
2018-09-20T05:01:48.964Z,14.90
2018-09-20T05:04:17.543Z,14.90
2018-09-20T05:06:46.074Z,14.90
2018-09-20T05:09:15.044Z,14.90
2018-09-20T05:11:44.121Z,14.90
2018-09-20T05:14:12.740Z,14.90
2018-09-20T05:16:41.800Z,14.90
2018-09-20T05:19:10.387Z,14.90
2018-09-20T05:21:39.003Z,14.90
2018-09-20T05:24:07.572Z,14.90
2018-09-20T05:26:36.059Z,14.90
2018-09-20T05:29:04.603Z,15.00
2018-09-20T05:31:33.094Z,15.00
2018-09-20T05:34:04.227Z,15.10
2018-09-20T05:36:32.767Z,15.10
2018-09-20T05:39:03.251Z,15.10
2018-09-20T05:41:31.775Z,15.20
2018-09-20T05:44:00.380Z,15.20
2018-09-20T05:46:28.951Z,15.30
2018-09-20T05:48:57.481Z,15.30
2018-09-20T05:51:25.983Z,15.40
2018-09-20T05:53:54.611Z,15.40
2018-09-20T05:56:23.125Z,15.50
2018-09-20T05:58:51.647Z,15.50
2018-09-20T06:01:20.313Z,15.60
2018-09-20T06:03:48.823Z,15.70
2018-09-20T06:06:17.356Z,15.80
2018-09-20T06:08:45.861Z,15.80
2018-09-20T06:11:14.431Z,15.90
2018-09-20T06:13:42.991Z,16.00
2018-09-20T06:16:11.582Z,16.00
2018-09-20T06:18:40.136Z,16.10
2018-09-20T06:21:08.714Z,16.20
2018-09-20T06:23:37.261Z,16.20
2018-09-20T06:26:05.855Z,16.30
2018-09-20T06:28:34.412Z,16.40
2018-09-20T06:31:03.610Z,16.50
2018-09-20T06:33:32.166Z,16.60
2018-09-20T06:36:00.791Z,16.70
2018-09-20T06:38:29.297Z,16.80
2018-09-20T06:40:57.852Z,16.90
2018-09-20T06:43:26.339Z,17.00
2018-09-20T06:45:54.901Z,17.10
2018-09-20T06:48:23.440Z,17.20
2018-09-20T06:50:52.027Z,17.30
2018-09-20T06:53:20.606Z,17.40
2018-09-20T06:55:49.202Z,17.50
2018-09-20T06:58:17.824Z,17.60
2018-09-20T07:00:46.414Z,17.70
2018-09-20T07:03:15.065Z,17.80
2018-09-20T07:05:43.547Z,18.00
2018-09-20T07:08:12.123Z,18.10
2018-09-20T07:10:40.691Z,18.20
2018-09-20T07:13:09.267Z,18.30
2018-09-20T07:15:37.793Z,18.40
2018-09-20T07:18:06.435Z,18.50
2018-09-20T07:20:34.988Z,18.60
2018-09-20T07:23:05.351Z,18.70
2018-09-20T07:25:33.921Z,18.80
2018-09-20T07:28:02.979Z,18.90
2018-09-20T07:30:31.499Z,19.00
2018-09-20T07:33:00.050Z,19.20
2018-09-20T07:35:28.619Z,19.30
2018-09-20T07:37:57.192Z,19.40
2018-09-20T07:40:25.767Z,19.50
2018-09-20T07:42:54.423Z,19.60
2018-09-20T07:45:22.932Z,19.70
2018-09-20T07:47:51.461Z,19.90
2018-09-20T07:50:20.028Z,20.00
2018-09-20T07:52:48.524Z,20.10
2018-09-20T07:55:17.087Z,20.30
2018-09-20T07:57:45.596Z,20.40
2018-09-20T08:00:14.164Z,20.60
2018-09-20T08:02:42.706Z,20.80
2018-09-20T08:05:11.302Z,20.90
2018-09-20T08:07:39.830Z,21.00
2018-09-20T08:10:08.442Z,21.20
2018-09-20T08:12:37.006Z,21.30
2018-09-20T08:15:05.991Z,21.50
2018-09-20T08:17:34.500Z,21.60
2018-09-20T08:20:03.137Z,21.80
2018-09-20T08:22:31.669Z,21.90
2018-09-20T08:25:00.566Z,22.10
2018-09-20T08:27:29.098Z,22.20
2018-09-20T08:29:57.680Z,22.30
2018-09-20T08:32:26.201Z,22.40
2018-09-20T08:34:54.763Z,22.50
2018-09-20T08:37:23.391Z,22.70
2018-09-20T08:39:51.918Z,22.80
2018-09-20T08:42:20.477Z,23.00
2018-09-20T08:44:48.964Z,23.20
2018-09-20T08:47:17.580Z,23.30
2018-09-20T08:49:46.150Z,23.40
2018-09-20T08:52:14.747Z,23.50
2018-09-20T08:54:43.288Z,23.60
2018-09-20T08:57:11.939Z,23.70
2018-09-20T08:59:40.429Z,23.80
2018-09-20T09:02:09.050Z,23.70
2018-09-20T09:04:37.627Z,23.80
2018-09-20T09:07:06.203Z,23.90
2018-09-20T09:09:34.771Z,24.10
2018-09-20T09:12:03.435Z,24.20
2018-09-20T09:14:31.865Z,24.30
2018-09-20T09:17:00.434Z,24.40
2018-09-20T09:19:28.977Z,24.60
2018-09-20T09:21:57.568Z,24.70
2018-09-20T09:24:26.181Z,24.80
2018-09-20T09:26:54.758Z,24.90
2018-09-20T09:29:23.332Z,24.90
2018-09-20T09:31:51.971Z,25.10
2018-09-20T09:34:20.619Z,25.10
2018-09-20T09:36:49.144Z,25.10
2018-09-20T09:39:17.706Z,25.10
2018-09-20T09:41:46.252Z,25.20
2018-09-20T09:44:14.830Z,25.30
2018-09-20T09:46:43.424Z,25.30
2018-09-20T09:49:12.348Z,25.50
2018-09-20T09:51:40.863Z,25.50
2018-09-20T09:54:09.498Z,25.40
2018-09-20T09:56:38.108Z,25.50
2018-09-20T09:59:06.758Z,25.50
2018-09-20T10:01:35.313Z,25.70
2018-09-20T10:04:04.008Z,25.70
2018-09-20T10:06:32.562Z,25.80
2018-09-20T10:09:03.294Z,25.90
2018-09-20T10:11:31.810Z,26.10
2018-09-20T10:14:00.396Z,26.20
2018-09-20T10:16:28.913Z,26.30
2018-09-20T10:18:57.570Z,26.50
2018-09-20T10:21:26.118Z,26.40
2018-09-20T10:23:54.887Z,26.60
2018-09-20T10:26:23.448Z,26.80
2018-09-20T10:28:52.020Z,26.80
2018-09-20T10:31:20.624Z,27.00
2018-09-20T10:33:49.124Z,27.10
2018-09-20T10:36:17.725Z,27.20
2018-09-20T10:38:46.290Z,27.40
2018-09-20T10:41:14.962Z,27.50
2018-09-20T10:43:43.506Z,27.60
2018-09-20T10:46:12.081Z,27.70
2018-09-20T10:48:40.615Z,27.70
2018-09-20T10:51:09.704Z,27.80
2018-09-20T10:53:38.236Z,27.80
2018-09-20T10:56:06.803Z,27.90
2018-09-20T10:58:35.338Z,27.80
2018-09-20T11:01:03.984Z,28.00
2018-09-20T11:03:32.588Z,28.10
2018-09-20T11:06:02.906Z,28.30
2018-09-20T11:08:31.499Z,28.30
2018-09-20T11:11:00.116Z,28.40
2018-09-20T11:13:28.700Z,28.50
2018-09-20T11:15:57.556Z,28.60
2018-09-20T11:18:26.108Z,28.60
2018-09-20T11:20:54.739Z,28.80
2018-09-20T11:23:23.314Z,28.90
2018-09-20T11:25:51.818Z,29.00
2018-09-20T11:28:20.389Z,28.80
2018-09-20T11:30:48.885Z,28.80
2018-09-20T11:33:17.450Z,28.80
2018-09-20T11:35:45.990Z,29.00
2018-09-20T11:38:14.526Z,29.10
2018-09-20T11:40:43.050Z,29.00
2018-09-20T11:43:11.972Z,28.90
2018-09-20T11:45:40.609Z,28.80
2018-09-20T11:48:09.170Z,28.90
2018-09-20T11:50:37.690Z,28.90
2018-09-20T11:53:06.319Z,29.00
2018-09-20T11:55:35.029Z,29.00
2018-09-20T11:58:07.806Z,29.10
2018-09-20T12:00:36.613Z,29.10
2018-09-20T12:03:05.423Z,29.20
2018-09-20T12:05:34.036Z,29.40
2018-09-20T12:08:03.178Z,29.40
2018-09-20T12:10:31.722Z,29.50
2018-09-20T12:13:00.253Z,29.50
2018-09-20T12:15:28.792Z,29.50
2018-09-20T12:17:57.330Z,29.50
2018-09-20T12:20:25.854Z,29.50
2018-09-20T12:22:54.434Z,29.30
2018-09-20T12:25:23.046Z,29.40
2018-09-20T12:27:51.603Z,29.50
2018-09-20T12:30:20.261Z,29.40
2018-09-20T12:32:48.765Z,29.50
2018-09-20T12:35:17.343Z,29.60
2018-09-20T12:37:45.870Z,29.50
2018-09-20T12:40:14.447Z,29.70
2018-09-20T12:42:43.007Z,29.80
2018-09-20T12:45:11.658Z,29.80
2018-09-20T12:47:40.236Z,29.90
2018-09-20T12:50:08.964Z,30.00
2018-09-20T12:52:37.584Z,29.90
2018-09-20T12:55:06.256Z,29.60
2018-09-20T12:57:34.833Z,29.60
2018-09-20T13:00:32.995Z,29.70
2018-09-20T13:03:01.567Z,29.60
2018-09-20T13:05:30.167Z,29.50
2018-09-20T13:07:58.731Z,29.50
2018-09-20T13:10:27.354Z,29.30
2018-09-20T13:12:56.050Z,29.10
2018-09-20T13:15:24.643Z,29.10
2018-09-20T13:17:53.167Z,29.30
2018-09-20T13:20:21.826Z,29.30
2018-09-20T13:22:50.389Z,29.20
2018-09-20T13:25:19.040Z,29.30
2018-09-20T13:27:47.569Z,29.30
2018-09-20T13:30:16.083Z,29.30
2018-09-20T13:32:44.654Z,29.30
2018-09-20T13:35:13.207Z,29.20
2018-09-20T13:37:41.881Z,29.10
2018-09-20T13:40:10.403Z,29.20
2018-09-20T13:42:39.048Z,29.20
2018-09-20T13:45:07.699Z,29.20
2018-09-20T13:47:36.338Z,29.30
2018-09-20T13:50:05.067Z,29.40
2018-09-20T13:52:33.865Z,29.30
2018-09-20T13:55:02.471Z,29.30
2018-09-20T13:57:31.094Z,29.30
2018-09-20T13:59:59.675Z,29.30
2018-09-20T14:02:28.283Z,29.30
2018-09-20T14:04:56.804Z,29.30
2018-09-20T14:07:25.483Z,29.40
2018-09-20T14:09:54.018Z,29.30
2018-09-20T14:12:22.580Z,29.30
2018-09-20T14:14:51.230Z,29.10
2018-09-20T14:17:19.787Z,28.90
2018-09-20T14:19:48.442Z,28.80
2018-09-20T14:22:17.026Z,28.80
2018-09-20T14:24:45.768Z,28.70
2018-09-20T14:27:14.406Z,28.70
2018-09-20T14:29:43.038Z,28.60
2018-09-20T14:32:11.998Z,28.60
2018-09-20T14:34:40.592Z,28.50
2018-09-20T14:37:09.102Z,28.40
2018-09-20T14:39:37.697Z,28.40
2018-09-20T14:42:06.357Z,28.40
2018-09-20T14:44:34.972Z,28.30
2018-09-20T14:47:03.490Z,28.20
2018-09-20T14:49:32.027Z,28.10
2018-09-20T14:52:00.656Z,28.00
2018-09-20T14:54:29.194Z,27.90
2018-09-20T14:56:58.023Z,27.80
2018-09-20T14:59:26.595Z,27.70
2018-09-20T15:01:55.128Z,27.70
2018-09-20T15:04:24.310Z,27.60
2018-09-20T15:06:52.863Z,27.60
2018-09-20T15:09:21.431Z,27.60
2018-09-20T15:11:50.008Z,27.50
2018-09-20T15:14:18.609Z,27.40
2018-09-20T15:16:47.172Z,27.30
2018-09-20T15:19:15.697Z,27.30
2018-09-20T15:21:44.291Z,27.20
2018-09-20T15:24:12.915Z,27.20
2018-09-20T15:26:41.515Z,27.10
2018-09-20T15:29:10.099Z,27.10
2018-09-20T15:31:38.708Z,27.10
2018-09-20T15:34:07.291Z,27.00
2018-09-20T15:36:36.596Z,27.00
2018-09-20T15:39:08.322Z,26.90
2018-09-20T15:41:37.116Z,26.90
2018-09-20T15:44:05.642Z,26.80
2018-09-20T15:46:34.276Z,26.70
2018-09-20T15:49:02.952Z,26.60
2018-09-20T15:51:31.572Z,26.60
2018-09-20T15:54:00.206Z,26.50
2018-09-20T15:56:28.824Z,26.40
2018-09-20T15:58:57.418Z,26.30
2018-09-20T16:01:25.988Z,26.30
2018-09-20T16:03:54.540Z,26.20
2018-09-20T16:06:23.335Z,26.20
2018-09-20T16:08:51.862Z,26.10
2018-09-20T16:11:20.452Z,26.00
2018-09-20T16:13:48.982Z,26.00
2018-09-20T16:16:17.556Z,25.90
2018-09-20T16:18:46.166Z,25.90
2018-09-20T16:21:14.714Z,25.80
2018-09-20T16:23:43.313Z,25.70
2018-09-20T16:26:11.839Z,25.60
2018-09-20T16:29:21.470Z,25.60
2018-09-20T16:32:05.110Z,25.50
2018-09-20T16:35:49.678Z,25.40
2018-09-20T16:38:28.479Z,25.30
2018-09-20T16:41:00.280Z,25.20
2018-09-20T16:43:28.893Z,25.10
2018-09-20T16:45:57.429Z,25.00
2018-09-20T16:48:26.080Z,24.90
2018-09-20T16:50:54.707Z,24.80
2018-09-20T16:53:23.554Z,24.70
2018-09-20T16:55:52.066Z,24.70
2018-09-20T16:58:20.636Z,24.60
2018-09-20T17:00:49.242Z,24.50
2018-09-20T17:03:17.880Z,24.40
2018-09-20T17:05:47.092Z,24.30
2018-09-20T17:08:15.662Z,24.20
2018-09-20T17:10:44.314Z,24.10
2018-09-20T17:13:12.891Z,24.00
2018-09-20T17:15:41.998Z,23.90
2018-09-20T17:18:10.669Z,23.80
2018-09-20T17:20:39.517Z,23.60
2018-09-20T17:23:08.064Z,23.50
2018-09-20T17:25:36.721Z,23.40
2018-09-20T17:28:05.427Z,23.30
2018-09-20T17:30:34.071Z,23.10
2018-09-20T17:33:02.741Z,23.00
2018-09-20T17:35:31.758Z,22.90
2018-09-20T17:38:02.649Z,22.70
2018-09-20T17:40:32.621Z,22.60
2018-09-20T17:43:03.777Z,22.50
2018-09-20T17:45:32.412Z,22.40
2018-09-20T17:48:03.116Z,22.40
2018-09-20T17:50:31.686Z,22.30
2018-09-20T17:53:00.678Z,22.10
2018-09-20T17:55:29.750Z,22.10
2018-09-20T17:57:58.919Z,22.00
2018-09-20T18:00:27.516Z,21.90
2018-09-20T18:02:56.158Z,21.90
2018-09-20T18:05:24.644Z,21.80
2018-09-20T18:07:53.866Z,21.70
2018-09-20T18:10:22.370Z,21.60
2018-09-20T18:12:50.968Z,21.50
2018-09-20T18:15:19.470Z,21.40
2018-09-20T18:17:48.110Z,21.30
2018-09-20T18:20:16.630Z,21.20
2018-09-20T18:22:45.235Z,21.10
2018-09-20T18:25:13.851Z,21.10
2018-09-20T18:27:42.752Z,21.00
2018-09-20T18:30:11.317Z,20.90
2018-09-20T18:32:39.890Z,20.80
2018-09-20T18:35:08.598Z,20.80
2018-09-20T18:37:38.321Z,20.70
2018-09-20T18:40:06.973Z,20.60
2018-09-20T18:42:35.735Z,20.50
2018-09-20T18:45:07.399Z,20.50
2018-09-20T18:47:35.992Z,20.40
2018-09-20T18:50:04.694Z,20.30
2018-09-20T18:52:33.208Z,20.20
2018-09-20T18:55:02.939Z,20.20
2018-09-20T18:57:31.473Z,20.10
2018-09-20T19:00:00.064Z,20.00
2018-09-20T19:02:28.623Z,20.00
2018-09-20T19:04:57.246Z,20.00
2018-09-20T19:07:25.850Z,20.00
2018-09-20T19:09:54.482Z,20.00
2018-09-20T19:12:23.063Z,19.90
2018-09-20T19:14:51.662Z,19.90
2018-09-20T19:17:20.168Z,19.90
2018-09-20T19:19:48.770Z,19.80
2018-09-20T19:22:17.317Z,19.80
2018-09-20T19:24:45.968Z,19.80
2018-09-20T19:27:14.776Z,19.70
2018-09-20T19:29:43.726Z,19.60
2018-09-20T19:32:12.240Z,19.60
2018-09-20T19:34:40.784Z,19.50
2018-09-20T19:37:09.346Z,19.50
2018-09-20T19:39:37.969Z,19.40
2018-09-20T19:42:06.580Z,19.40
2018-09-20T19:44:35.107Z,19.30
2018-09-20T19:47:03.722Z,19.30
2018-09-20T19:49:32.269Z,19.20
2018-09-20T19:52:00.847Z,19.10
2018-09-20T19:54:29.378Z,19.10
2018-09-20T19:56:58.022Z,19.00
2018-09-20T19:59:26.584Z,19.00
2018-09-20T20:01:56.234Z,19.00
2018-09-20T20:04:24.860Z,19.00
2018-09-20T20:06:53.570Z,18.90
2018-09-20T20:09:22.126Z,18.90
2018-09-20T20:11:50.704Z,18.90
2018-09-20T20:14:19.247Z,18.80
2018-09-20T20:16:47.909Z,18.80
2018-09-20T20:19:16.512Z,18.80
2018-09-20T20:21:45.418Z,18.70
2018-09-20T20:24:13.987Z,18.70
2018-09-20T20:26:42.574Z,18.70
2018-09-20T20:29:11.123Z,18.60
2018-09-20T20:31:39.655Z,18.60
2018-09-20T20:34:08.223Z,18.60
2018-09-20T20:36:36.719Z,18.60
2018-09-20T20:39:07.910Z,18.50
2018-09-20T20:41:36.444Z,18.50
2018-09-20T20:44:05.040Z,18.50
2018-09-20T20:46:33.547Z,18.40
2018-09-20T20:49:02.962Z,18.40
2018-09-20T20:51:31.493Z,18.40
2018-09-20T20:54:00.161Z,18.40
2018-09-20T20:56:28.715Z,18.40
2018-09-20T20:58:57.380Z,18.40
2018-09-20T21:01:25.856Z,18.40
2018-09-20T21:03:54.622Z,18.30
2018-09-20T21:06:23.186Z,18.30
2018-09-20T21:08:51.831Z,18.30
2018-09-20T21:11:20.404Z,18.20
2018-09-20T21:13:49.000Z,18.20
2018-09-20T21:16:17.543Z,18.10
2018-09-20T21:18:46.154Z,18.10
2018-09-20T21:21:14.711Z,18.10
2018-09-20T21:23:43.302Z,18.00
2018-09-20T21:26:11.885Z,18.00
2018-09-20T21:28:40.510Z,17.90
2018-09-20T21:31:09.070Z,17.90
2018-09-20T21:33:37.623Z,17.90
2018-09-20T21:36:06.238Z,17.90
2018-09-20T21:38:34.800Z,17.80
2018-09-20T21:41:03.383Z,17.80
2018-09-20T21:43:32.853Z,17.70
2018-09-20T21:46:02.930Z,17.70
2018-09-20T21:48:31.521Z,17.70
2018-09-20T21:51:00.177Z,17.60
2018-09-20T21:53:28.722Z,17.60
2018-09-20T21:55:57.298Z,17.60
2018-09-20T21:58:25.810Z,17.60
2018-09-20T22:00:59.608Z,17.60
2018-09-20T22:03:28.175Z,17.50
2018-09-20T22:05:56.734Z,17.50
2018-09-20T22:08:25.254Z,17.50
2018-09-20T22:10:53.818Z,17.50
2018-09-20T22:13:22.335Z,17.50
2018-09-20T22:15:50.890Z,17.50
2018-09-20T22:18:19.443Z,17.50
2018-09-20T22:20:47.992Z,17.40
2018-09-20T22:23:16.543Z,17.40
2018-09-20T22:25:45.141Z,17.40
2018-09-20T22:28:13.645Z,17.40
2018-09-20T22:30:42.226Z,17.40
2018-09-20T22:33:10.755Z,17.40
2018-09-20T22:35:39.368Z,17.40
2018-09-20T22:38:07.955Z,17.40
2018-09-20T22:40:36.512Z,17.40
2018-09-20T22:43:05.413Z,17.40
2018-09-20T22:45:33.935Z,17.40
2018-09-20T22:48:03.171Z,17.40
2018-09-20T22:50:31.695Z,17.50
2018-09-20T22:53:00.243Z,17.50
2018-09-20T22:55:28.762Z,17.50
2018-09-20T22:57:57.339Z,17.40
2018-09-20T23:00:25.886Z,17.40
2018-09-20T23:02:55.932Z,17.40
2018-09-20T23:05:24.764Z,17.40
2018-09-20T23:07:53.326Z,17.30
2018-09-20T23:10:21.873Z,17.40
2018-09-20T23:12:50.457Z,17.30
2018-09-20T23:15:18.992Z,17.30
2018-09-20T23:17:47.496Z,17.30
2018-09-20T23:20:16.125Z,17.30
2018-09-20T23:22:44.631Z,17.20
2018-09-20T23:25:13.200Z,17.20
2018-09-20T23:27:41.719Z,17.20
2018-09-20T23:30:10.372Z,17.20
2018-09-20T23:32:38.883Z,17.20
2018-09-20T23:35:07.502Z,17.20
2018-09-20T23:37:36.006Z,17.10
2018-09-20T23:40:04.642Z,17.10
2018-09-20T23:42:33.122Z,17.10
2018-09-20T23:45:03.542Z,17.10
2018-09-20T23:47:32.055Z,17.00
2018-09-20T23:50:00.588Z,17.00
2018-09-20T23:52:29.100Z,17.00
2018-09-20T23:54:57.636Z,17.00
2018-09-20T23:57:26.140Z,17.00
2018-09-20T23:59:54.680Z,17.00
